sensor_id;sensor_type;location;lat;lon;timestamp;temperature;humidity
32476;DHT22;18929;48.008;10.882;2023-03-14T00:00:15;13.50;99.90
32476;DHT22;18929;48.008;10.882;2023-03-14T00:02:44;13.70;99.90
32476;DHT22;18929;48.008;10.882;2023-03-14T00:05:11;13.50;99.90
32476;DHT22;18929;48.008;10.882;2023-03-14T00:07:38;13.40;99.90
32476;DHT22;18929;48.008;10.882;2023-03-14T00:10:06;13.40;99.90
32476;DHT22;18929;48.008;10.882;2023-03-14T00:12:33;13.40;99.90
32476;DHT22;18929;48.008;10.882;2023-03-14T00:15:00;13.10;99.90
32476;DHT22;18929;48.008;10.882;2023-03-14T00:17:28;13.40;99.90
32476;DHT22;18929;48.008;10.882;2023-03-14T00:19:57;13.40;99.90
32476;DHT22;18929;48.008;10.882;2023-03-14T00:22:29;13.40;99.90
32476;DHT22;18929;48.008;10.882;2023-03-14T00:24:56;13.50;99.90
32476;DHT22;18929;48.008;10.882;2023-03-14T00:27:23;13.50;99.90
32476;DHT22;18929;48.008;10.882;2023-03-14T00:29:50;13.50;99.90
32476;DHT22;18929;48.008;10.882;2023-03-14T00:32:17;13.50;99.90
32476;DHT22;18929;48.008;10.882;2023-03-14T00:34:43;13.30;99.90
32476;DHT22;18929;48.008;10.882;2023-03-14T00:37:12;13.50;99.90
32476;DHT22;18929;48.008;10.882;2023-03-14T00:39:39;13.50;99.90
32476;DHT22;18929;48.008;10.882;2023-03-14T00:42:06;13.60;99.90
32476;DHT22;18929;48.008;10.882;2023-03-14T00:44:33;13.50;99.90
32476;DHT22;18929;48.008;10.882;2023-03-14T00:46:59;13.40;99.90
32476;DHT22;18929;48.008;10.882;2023-03-14T00:49:26;13.30;99.90
32476;DHT22;18929;48.008;10.882;2023-03-14T00:51:53;13.40;99.90
32476;DHT22;18929;48.008;10.882;2023-03-14T00:54:21;13.30;99.90
32476;DHT22;18929;48.008;10.882;2023-03-14T00:56:48;13.30;99.90
32476;DHT22;18929;48.008;10.882;2023-03-14T00:59:15;13.30;99.90
32476;DHT22;18929;48.008;10.882;2023-03-14T01:01:42;13.00;99.90
32476;DHT22;18929;48.008;10.882;2023-03-14T01:04:09;13.00;99.90
32476;DHT22;18929;48.008;10.882;2023-03-14T01:06:36;12.60;99.90
32476;DHT22;18929;48.008;10.882;2023-03-14T01:09:04;11.60;99.90
32476;DHT22;18929;48.008;10.882;2023-03-14T01:11:33;11.90;99.90
32476;DHT22;18929;48.008;10.882;2023-03-14T01:14:00;11.20;99.90
32476;DHT22;18929;48.008;10.882;2023-03-14T01:16:29;11.70;99.90
32476;DHT22;18929;48.008;10.882;2023-03-14T01:18:56;11.60;99.90
32476;DHT22;18929;48.008;10.882;2023-03-14T01:21:24;11.90;99.90
32476;DHT22;18929;48.008;10.882;2023-03-14T01:23:51;11.90;99.90
32476;DHT22;18929;48.008;10.882;2023-03-14T01:26:19;11.60;99.90
32476;DHT22;18929;48.008;10.882;2023-03-14T01:28:48;11.50;99.90
32476;DHT22;18929;48.008;10.882;2023-03-14T01:31:16;11.80;99.90
32476;DHT22;18929;48.008;10.882;2023-03-14T01:33:43;11.30;99.90
32476;DHT22;18929;48.008;10.882;2023-03-14T01:36:10;11.30;99.90
32476;DHT22;18929;48.008;10.882;2023-03-14T01:38:37;11.40;99.90
32476;DHT22;18929;48.008;10.882;2023-03-14T01:41:05;11.20;99.90
32476;DHT22;18929;48.008;10.882;2023-03-14T01:43:32;11.50;99.90
32476;DHT22;18929;48.008;10.882;2023-03-14T01:48:50;11.20;99.90
32476;DHT22;18929;48.008;10.882;2023-03-14T01:51:19;10.80;99.90
32476;DHT22;18929;48.008;10.882;2023-03-14T01:53:47;10.60;99.90
32476;DHT22;18929;48.008;10.882;2023-03-14T01:56:15;11.00;99.90
32476;DHT22;18929;48.008;10.882;2023-03-14T01:58:44;11.20;99.90
32476;DHT22;18929;48.008;10.882;2023-03-14T02:01:13;11.30;99.90
32476;DHT22;18929;48.008;10.882;2023-03-14T02:03:44;11.40;99.90
32476;DHT22;18929;48.008;10.882;2023-03-14T02:06:13;11.50;99.90
32476;DHT22;18929;48.008;10.882;2023-03-14T02:08:41;11.70;99.90
32476;DHT22;18929;48.008;10.882;2023-03-14T02:11:09;11.50;99.90
32476;DHT22;18929;48.008;10.882;2023-03-14T02:13:36;11.50;99.90
32476;DHT22;18929;48.008;10.882;2023-03-14T02:16:03;11.40;99.90
32476;DHT22;18929;48.008;10.882;2023-03-14T02:18:30;11.40;99.90
32476;DHT22;18929;48.008;10.882;2023-03-14T02:20:58;11.20;99.90
32476;DHT22;18929;48.008;10.882;2023-03-14T02:23:30;11.00;99.90
32476;DHT22;18929;48.008;10.882;2023-03-14T02:26:00;10.70;99.90
32476;DHT22;18929;48.008;10.882;2023-03-14T02:28:29;10.90;99.90
32476;DHT22;18929;48.008;10.882;2023-03-14T02:30:56;10.80;99.90
32476;DHT22;18929;48.008;10.882;2023-03-14T02:33:23;10.80;99.90
32476;DHT22;18929;48.008;10.882;2023-03-14T02:35:50;10.80;99.90
32476;DHT22;18929;48.008;10.882;2023-03-14T02:38:19;10.70;99.90
32476;DHT22;18929;48.008;10.882;2023-03-14T02:40:48;10.80;99.90
32476;DHT22;18929;48.008;10.882;2023-03-14T02:43:15;10.70;99.90
32476;DHT22;18929;48.008;10.882;2023-03-14T02:45:43;10.80;99.90
32476;DHT22;18929;48.008;10.882;2023-03-14T02:48:13;10.90;99.90
32476;DHT22;18929;48.008;10.882;2023-03-14T02:50:40;10.80;99.90
32476;DHT22;18929;48.008;10.882;2023-03-14T02:53:07;11.00;99.90
32476;DHT22;18929;48.008;10.882;2023-03-14T02:55:34;11.00;99.90
32476;DHT22;18929;48.008;10.882;2023-03-14T02:58:01;10.70;99.90
32476;DHT22;18929;48.008;10.882;2023-03-14T03:00:28;10.30;99.90
32476;DHT22;18929;48.008;10.882;2023-03-14T03:02:57;10.40;99.90
32476;DHT22;18929;48.008;10.882;2023-03-14T03:05:24;10.50;99.90
32476;DHT22;18929;48.008;10.882;2023-03-14T03:07:51;10.50;99.90
32476;DHT22;18929;48.008;10.882;2023-03-14T03:10:18;10.40;99.90
32476;DHT22;18929;48.008;10.882;2023-03-14T03:12:45;10.40;99.90
32476;DHT22;18929;48.008;10.882;2023-03-14T03:15:11;10.30;99.90
32476;DHT22;18929;48.008;10.882;2023-03-14T03:17:39;10.50;99.90
32476;DHT22;18929;48.008;10.882;2023-03-14T03:20:08;10.50;99.90
32476;DHT22;18929;48.008;10.882;2023-03-14T03:22:35;10.50;99.90
32476;DHT22;18929;48.008;10.882;2023-03-14T03:25:02;10.50;99.90
32476;DHT22;18929;48.008;10.882;2023-03-14T03:27:29;10.30;99.90
32476;DHT22;18929;48.008;10.882;2023-03-14T03:29:56;10.40;99.90
32476;DHT22;18929;48.008;10.882;2023-03-14T03:32:23;10.40;99.90
32476;DHT22;18929;48.008;10.882;2023-03-14T03:34:49;10.50;99.90
32476;DHT22;18929;48.008;10.882;2023-03-14T03:37:18;10.50;99.90
32476;DHT22;18929;48.008;10.882;2023-03-14T03:39:45;10.50;99.90
32476;DHT22;18929;48.008;10.882;2023-03-14T03:42:12;10.40;99.90
32476;DHT22;18929;48.008;10.882;2023-03-14T03:44:38;10.40;99.90
32476;DHT22;18929;48.008;10.882;2023-03-14T03:47:05;10.30;99.90
32476;DHT22;18929;48.008;10.882;2023-03-14T03:49:32;10.40;99.90
32476;DHT22;18929;48.008;10.882;2023-03-14T03:51:59;10.30;99.90
32476;DHT22;18929;48.008;10.882;2023-03-14T03:54:28;10.40;99.90
32476;DHT22;18929;48.008;10.882;2023-03-14T03:56:55;10.30;99.90
32476;DHT22;18929;48.008;10.882;2023-03-14T03:59:22;10.40;99.90
32476;DHT22;18929;48.008;10.882;2023-03-14T04:11:01;10.20;99.90
32476;DHT22;18929;48.008;10.882;2023-03-14T04:13:28;10.20;99.90
32476;DHT22;18929;48.008;10.882;2023-03-14T04:15:55;10.30;99.90
32476;DHT22;18929;48.008;10.882;2023-03-14T04:18:23;10.30;99.90
32476;DHT22;18929;48.008;10.882;2023-03-14T04:20:51;10.30;99.90
32476;DHT22;18929;48.008;10.882;2023-03-14T04:23:18;10.40;99.90
32476;DHT22;18929;48.008;10.882;2023-03-14T04:25:45;10.20;99.90
32476;DHT22;18929;48.008;10.882;2023-03-14T04:28:13;10.30;99.90
32476;DHT22;18929;48.008;10.882;2023-03-14T04:30:40;10.20;99.90
32476;DHT22;18929;48.008;10.882;2023-03-14T04:33:07;10.20;99.90
32476;DHT22;18929;48.008;10.882;2023-03-14T04:35:34;10.20;99.90
32476;DHT22;18929;48.008;10.882;2023-03-14T04:38:01;10.20;99.90
32476;DHT22;18929;48.008;10.882;2023-03-14T04:40:28;10.20;99.90
32476;DHT22;18929;48.008;10.882;2023-03-14T04:42:55;10.30;99.90
32476;DHT22;18929;48.008;10.882;2023-03-14T04:45:23;10.30;99.90
32476;DHT22;18929;48.008;10.882;2023-03-14T04:47:50;10.20;99.90
32476;DHT22;18929;48.008;10.882;2023-03-14T04:50:17;10.30;99.90
32476;DHT22;18929;48.008;10.882;2023-03-14T04:52:44;10.30;99.90
32476;DHT22;18929;48.008;10.882;2023-03-14T04:55:11;10.10;99.90
32476;DHT22;18929;48.008;10.882;2023-03-14T04:57:38;10.50;99.90
32476;DHT22;18929;48.008;10.882;2023-03-14T05:00:06;10.60;99.90
32476;DHT22;18929;48.008;10.882;2023-03-14T05:02:35;10.50;99.90
32476;DHT22;18929;48.008;10.882;2023-03-14T05:05:01;10.40;99.90
32476;DHT22;18929;48.008;10.882;2023-03-14T05:07:28;10.40;99.90
32476;DHT22;18929;48.008;10.882;2023-03-14T05:09:55;10.30;99.90
32476;DHT22;18929;48.008;10.882;2023-03-14T05:12:22;10.40;99.90
32476;DHT22;18929;48.008;10.882;2023-03-14T05:14:49;10.40;99.90
32476;DHT22;18929;48.008;10.882;2023-03-14T05:17:16;10.40;99.90
32476;DHT22;18929;48.008;10.882;2023-03-14T05:19:45;10.50;99.90
32476;DHT22;18929;48.008;10.882;2023-03-14T05:22:12;10.40;99.90
32476;DHT22;18929;48.008;10.882;2023-03-14T05:24:39;10.40;99.90
32476;DHT22;18929;48.008;10.882;2023-03-14T05:27:05;10.60;99.90
32476;DHT22;18929;48.008;10.882;2023-03-14T05:29:32;10.60;99.90
32476;DHT22;18929;48.008;10.882;2023-03-14T05:31:59;10.70;99.90
32476;DHT22;18929;48.008;10.882;2023-03-14T05:34:26;10.50;99.90
32476;DHT22;18929;48.008;10.882;2023-03-14T05:36:54;10.80;99.90
32476;DHT22;18929;48.008;10.882;2023-03-14T05:39:22;10.90;99.90
32476;DHT22;18929;48.008;10.882;2023-03-14T05:41:49;10.90;99.90
32476;DHT22;18929;48.008;10.882;2023-03-14T05:44:16;10.50;99.90
32476;DHT22;18929;48.008;10.882;2023-03-14T05:46:43;10.70;99.90
32476;DHT22;18929;48.008;10.882;2023-03-14T05:49:10;10.60;99.90
32476;DHT22;18929;48.008;10.882;2023-03-14T05:51:37;10.50;99.90
32476;DHT22;18929;48.008;10.882;2023-03-14T05:54:05;10.40;99.90
32476;DHT22;18929;48.008;10.882;2023-03-14T05:56:32;10.50;99.90
32476;DHT22;18929;48.008;10.882;2023-03-14T05:58:59;10.60;99.90
32476;DHT22;18929;48.008;10.882;2023-03-14T06:01:28;10.50;99.90
32476;DHT22;18929;48.008;10.882;2023-03-14T06:03:55;10.20;99.90
32476;DHT22;18929;48.008;10.882;2023-03-14T06:06:22;10.30;99.90
32476;DHT22;18929;48.008;10.882;2023-03-14T06:08:49;10.00;99.90
32476;DHT22;18929;48.008;10.882;2023-03-14T06:11:17;10.20;99.90
32476;DHT22;18929;48.008;10.882;2023-03-14T06:13:44;10.20;99.90
32476;DHT22;18929;48.008;10.882;2023-03-14T06:16:11;10.40;99.90
32476;DHT22;18929;48.008;10.882;2023-03-14T06:18:38;10.40;99.90
32476;DHT22;18929;48.008;10.882;2023-03-14T06:21:05;10.30;99.90
32476;DHT22;18929;48.008;10.882;2023-03-14T06:23:33;10.50;99.90
32476;DHT22;18929;48.008;10.882;2023-03-14T06:25:59;10.50;99.90
32476;DHT22;18929;48.008;10.882;2023-03-14T06:28:28;10.70;99.90
32476;DHT22;18929;48.008;10.882;2023-03-14T06:30:55;10.50;99.90
32476;DHT22;18929;48.008;10.882;2023-03-14T06:33:21;10.50;99.90
32476;DHT22;18929;48.008;10.882;2023-03-14T06:35:48;10.40;99.90
32476;DHT22;18929;48.008;10.882;2023-03-14T06:38:15;10.30;99.90
32476;DHT22;18929;48.008;10.882;2023-03-14T06:40:42;10.20;99.90
32476;DHT22;18929;48.008;10.882;2023-03-14T06:43:09;10.10;99.90
32476;DHT22;18929;48.008;10.882;2023-03-14T06:45:37;10.10;99.90
32476;DHT22;18929;48.008;10.882;2023-03-14T06:48:04;10.30;99.90
32476;DHT22;18929;48.008;10.882;2023-03-14T06:50:31;10.30;99.90
32476;DHT22;18929;48.008;10.882;2023-03-14T06:52:58;10.30;99.90
32476;DHT22;18929;48.008;10.882;2023-03-14T06:55:24;9.80;99.90
32476;DHT22;18929;48.008;10.882;2023-03-14T06:57:51;10.00;99.90
32476;DHT22;18929;48.008;10.882;2023-03-14T07:00:18;10.00;99.90
32476;DHT22;18929;48.008;10.882;2023-03-14T07:02:47;10.20;99.90
32476;DHT22;18929;48.008;10.882;2023-03-14T07:05:14;10.10;99.90
32476;DHT22;18929;48.008;10.882;2023-03-14T07:07:41;10.00;99.90
32476;DHT22;18929;48.008;10.882;2023-03-14T07:10:09;10.10;99.90
32476;DHT22;18929;48.008;10.882;2023-03-14T07:12:38;10.00;99.90
32476;DHT22;18929;48.008;10.882;2023-03-14T07:15:05;10.10;99.90
32476;DHT22;18929;48.008;10.882;2023-03-14T07:17:33;9.90;99.90
32476;DHT22;18929;48.008;10.882;2023-03-14T07:20:02;9.80;99.90
32476;DHT22;18929;48.008;10.882;2023-03-14T07:22:31;9.90;99.90
32476;DHT22;18929;48.008;10.882;2023-03-14T07:24:58;9.90;99.90
32476;DHT22;18929;48.008;10.882;2023-03-14T07:27:25;10.00;99.90
32476;DHT22;18929;48.008;10.882;2023-03-14T07:29:53;10.10;99.90
32476;DHT22;18929;48.008;10.882;2023-03-14T07:32:20;10.00;99.90
32476;DHT22;18929;48.008;10.882;2023-03-14T07:34:47;9.80;99.90
32476;DHT22;18929;48.008;10.882;2023-03-14T07:37:15;10.00;99.90
32476;DHT22;18929;48.008;10.882;2023-03-14T07:39:43;10.00;99.90
32476;DHT22;18929;48.008;10.882;2023-03-14T07:42:09;10.10;99.90
32476;DHT22;18929;48.008;10.882;2023-03-14T07:44:37;10.20;99.90
32476;DHT22;18929;48.008;10.882;2023-03-14T07:47:05;10.10;99.90
32476;DHT22;18929;48.008;10.882;2023-03-14T07:52:32;10.10;99.90
32476;DHT22;18929;48.008;10.882;2023-03-14T07:54:59;10.00;99.90
32476;DHT22;18929;48.008;10.882;2023-03-14T07:57:27;9.70;99.90
32476;DHT22;18929;48.008;10.882;2023-03-14T07:59:54;9.50;99.90
32476;DHT22;18929;48.008;10.882;2023-03-14T08:02:21;9.60;99.90
32476;DHT22;18929;48.008;10.882;2023-03-14T08:04:49;9.80;99.90
32476;DHT22;18929;48.008;10.882;2023-03-14T08:07:16;10.00;99.90
32476;DHT22;18929;48.008;10.882;2023-03-14T08:09:44;10.00;99.90
32476;DHT22;18929;48.008;10.882;2023-03-14T08:12:11;9.80;99.90
32476;DHT22;18929;48.008;10.882;2023-03-14T08:14:38;9.90;99.90
32476;DHT22;18929;48.008;10.882;2023-03-14T08:17:05;9.80;99.90
32476;DHT22;18929;48.008;10.882;2023-03-14T08:19:33;9.70;99.90
32476;DHT22;18929;48.008;10.882;2023-03-14T08:22:00;9.90;99.90
32476;DHT22;18929;48.008;10.882;2023-03-14T08:24:27;9.70;99.90
32476;DHT22;18929;48.008;10.882;2023-03-14T08:26:56;9.70;99.90
32476;DHT22;18929;48.008;10.882;2023-03-14T08:29:23;9.50;99.90
32476;DHT22;18929;48.008;10.882;2023-03-14T08:31:50;9.50;99.90
32476;DHT22;18929;48.008;10.882;2023-03-14T08:34:17;9.60;99.90
32476;DHT22;18929;48.008;10.882;2023-03-14T08:36:44;9.80;99.90
32476;DHT22;18929;48.008;10.882;2023-03-14T08:39:11;9.60;99.90
32476;DHT22;18929;48.008;10.882;2023-03-14T08:41:38;9.60;99.90
32476;DHT22;18929;48.008;10.882;2023-03-14T08:44:09;9.70;99.90
32476;DHT22;18929;48.008;10.882;2023-03-14T08:46:37;10.00;99.90
32476;DHT22;18929;48.008;10.882;2023-03-14T08:49:04;9.90;99.90
32476;DHT22;18929;48.008;10.882;2023-03-14T08:51:31;10.10;99.90
32476;DHT22;18929;48.008;10.882;2023-03-14T08:53:58;9.80;99.90
32476;DHT22;18929;48.008;10.882;2023-03-14T08:56:31;9.80;99.90
32476;DHT22;18929;48.008;10.882;2023-03-14T08:58:58;10.00;99.90
32476;DHT22;18929;48.008;10.882;2023-03-14T09:01:26;9.80;99.90
32476;DHT22;18929;48.008;10.882;2023-03-14T09:03:54;9.90;99.90
32476;DHT22;18929;48.008;10.882;2023-03-14T09:06:21;9.90;99.90
32476;DHT22;18929;48.008;10.882;2023-03-14T09:08:48;9.90;99.90
32476;DHT22;18929;48.008;10.882;2023-03-14T09:11:15;10.10;99.90
32476;DHT22;18929;48.008;10.882;2023-03-14T09:13:43;9.80;99.90
32476;DHT22;18929;48.008;10.882;2023-03-14T09:16:10;9.90;99.90
32476;DHT22;18929;48.008;10.882;2023-03-14T09:18:38;10.00;99.90
32476;DHT22;18929;48.008;10.882;2023-03-14T09:21:05;9.80;99.90
32476;DHT22;18929;48.008;10.882;2023-03-14T09:23:32;9.40;99.90
32476;DHT22;18929;48.008;10.882;2023-03-14T09:25:59;9.60;99.90
32476;DHT22;18929;48.008;10.882;2023-03-14T09:28:26;9.60;99.90
32476;DHT22;18929;48.008;10.882;2023-03-14T09:30:53;9.70;99.90
32476;DHT22;18929;48.008;10.882;2023-03-14T09:33:21;10.20;99.90
32476;DHT22;18929;48.008;10.882;2023-03-14T09:35:49;10.00;99.90
32476;DHT22;18929;48.008;10.882;2023-03-14T09:38:16;9.80;99.90
32476;DHT22;18929;48.008;10.882;2023-03-14T09:40:43;9.90;99.90
32476;DHT22;18929;48.008;10.882;2023-03-14T09:43:10;9.70;99.90
32476;DHT22;18929;48.008;10.882;2023-03-14T09:45:39;9.60;99.90
32476;DHT22;18929;48.008;10.882;2023-03-14T09:48:08;9.70;99.90
32476;DHT22;18929;48.008;10.882;2023-03-14T09:50:39;9.70;99.90
32476;DHT22;18929;48.008;10.882;2023-03-14T09:53:09;9.90;99.90
32476;DHT22;18929;48.008;10.882;2023-03-14T09:55:39;10.00;99.90
32476;DHT22;18929;48.008;10.882;2023-03-14T09:58:08;10.00;99.90
32476;DHT22;18929;48.008;10.882;2023-03-14T10:00:36;10.00;99.90
32476;DHT22;18929;48.008;10.882;2023-03-14T10:03:11;9.70;99.90
32476;DHT22;18929;48.008;10.882;2023-03-14T10:05:42;10.00;99.90
32476;DHT22;18929;48.008;10.882;2023-03-14T10:08:11;10.00;99.90
32476;DHT22;18929;48.008;10.882;2023-03-14T10:10:38;10.00;99.90
32476;DHT22;18929;48.008;10.882;2023-03-14T10:13:12;10.00;99.90
32476;DHT22;18929;48.008;10.882;2023-03-14T10:15:40;10.00;99.90
32476;DHT22;18929;48.008;10.882;2023-03-14T10:18:10;9.80;99.90
32476;DHT22;18929;48.008;10.882;2023-03-14T10:20:38;10.30;99.90
32476;DHT22;18929;48.008;10.882;2023-03-14T10:23:18;10.20;99.90
32476;DHT22;18929;48.008;10.882;2023-03-14T10:25:58;9.80;99.90
32476;DHT22;18929;48.008;10.882;2023-03-14T10:28:26;9.90;99.90
32476;DHT22;18929;48.008;10.882;2023-03-14T10:30:54;9.90;99.90
32476;DHT22;18929;48.008;10.882;2023-03-14T10:33:22;9.70;99.90
32476;DHT22;18929;48.008;10.882;2023-03-14T10:35:53;9.90;99.90
32476;DHT22;18929;48.008;10.882;2023-03-14T10:38:22;9.90;99.90
32476;DHT22;18929;48.008;10.882;2023-03-14T10:40:52;10.20;99.90
32476;DHT22;18929;48.008;10.882;2023-03-14T10:43:22;10.30;99.90
32476;DHT22;18929;48.008;10.882;2023-03-14T10:45:52;10.70;99.90
32476;DHT22;18929;48.008;10.882;2023-03-14T10:48:24;10.30;99.90
32476;DHT22;18929;48.008;10.882;2023-03-14T10:50:56;10.10;99.90
32476;DHT22;18929;48.008;10.882;2023-03-14T10:53:23;10.30;99.90
32476;DHT22;18929;48.008;10.882;2023-03-14T10:55:52;10.50;99.90
32476;DHT22;18929;48.008;10.882;2023-03-14T10:58:23;10.30;99.90
32476;DHT22;18929;48.008;10.882;2023-03-14T11:01:05;10.50;99.90
32476;DHT22;18929;48.008;10.882;2023-03-14T11:03:36;10.30;99.90
32476;DHT22;18929;48.008;10.882;2023-03-14T11:06:06;10.20;99.90
32476;DHT22;18929;48.008;10.882;2023-03-14T11:08:36;10.50;99.90
32476;DHT22;18929;48.008;10.882;2023-03-14T11:11:10;10.90;99.90
32476;DHT22;18929;48.008;10.882;2023-03-14T11:13:39;10.90;99.90
32476;DHT22;18929;48.008;10.882;2023-03-14T11:16:13;10.50;99.90
32476;DHT22;18929;48.008;10.882;2023-03-14T11:21:24;10.40;99.90
32476;DHT22;18929;48.008;10.882;2023-03-14T11:23:55;10.50;99.90
32476;DHT22;18929;48.008;10.882;2023-03-14T11:26:28;10.30;99.90
32476;DHT22;18929;48.008;10.882;2023-03-14T11:28:58;10.40;99.90
32476;DHT22;18929;48.008;10.882;2023-03-14T11:31:29;10.70;99.90
32476;DHT22;18929;48.008;10.882;2023-03-14T11:34:00;10.60;99.90
32476;DHT22;18929;48.008;10.882;2023-03-14T11:36:29;10.30;99.90
32476;DHT22;18929;48.008;10.882;2023-03-14T11:38:58;10.70;99.90
32476;DHT22;18929;48.008;10.882;2023-03-14T11:41:26;10.90;99.90
32476;DHT22;18929;48.008;10.882;2023-03-14T11:43:57;10.80;99.90
32476;DHT22;18929;48.008;10.882;2023-03-14T11:46:25;10.30;99.90
32476;DHT22;18929;48.008;10.882;2023-03-14T11:48:56;10.50;99.90
32476;DHT22;18929;48.008;10.882;2023-03-14T11:51:34;10.60;99.90
32476;DHT22;18929;48.008;10.882;2023-03-14T11:54:04;11.00;99.90
32476;DHT22;18929;48.008;10.882;2023-03-14T11:56:36;11.00;99.90
32476;DHT22;18929;48.008;10.882;2023-03-14T11:59:08;10.70;99.90
32476;DHT22;18929;48.008;10.882;2023-03-14T12:01:42;10.70;99.90
32476;DHT22;18929;48.008;10.882;2023-03-14T12:04:13;10.70;99.90
32476;DHT22;18929;48.008;10.882;2023-03-14T12:06:44;11.10;99.90
32476;DHT22;18929;48.008;10.882;2023-03-14T12:09:13;11.10;99.90
32476;DHT22;18929;48.008;10.882;2023-03-14T12:11:42;10.50;99.90
32476;DHT22;18929;48.008;10.882;2023-03-14T12:14:19;10.60;99.90
32476;DHT22;18929;48.008;10.882;2023-03-14T12:16:47;11.00;99.90
32476;DHT22;18929;48.008;10.882;2023-03-14T12:19:25;10.90;99.90
32476;DHT22;18929;48.008;10.882;2023-03-14T12:21:53;11.00;99.90
32476;DHT22;18929;48.008;10.882;2023-03-14T12:24:22;10.70;99.90
32476;DHT22;18929;48.008;10.882;2023-03-14T12:26:52;10.80;99.90
32476;DHT22;18929;48.008;10.882;2023-03-14T12:29:21;10.70;99.90
32476;DHT22;18929;48.008;10.882;2023-03-14T12:31:48;10.80;99.90
32476;DHT22;18929;48.008;10.882;2023-03-14T12:34:26;10.50;99.90
32476;DHT22;18929;48.008;10.882;2023-03-14T12:39:40;11.10;99.90
32476;DHT22;18929;48.008;10.882;2023-03-14T12:42:10;10.90;99.90
32476;DHT22;18929;48.008;10.882;2023-03-14T12:44:46;10.90;99.90
32476;DHT22;18929;48.008;10.882;2023-03-14T12:50:08;10.80;99.90
32476;DHT22;18929;48.008;10.882;2023-03-14T12:52:49;10.70;99.90
32476;DHT22;18929;48.008;10.882;2023-03-14T12:55:19;10.50;99.90
32476;DHT22;18929;48.008;10.882;2023-03-14T12:57:48;10.60;99.90
32476;DHT22;18929;48.008;10.882;2023-03-14T13:00:21;10.50;99.90
32476;DHT22;18929;48.008;10.882;2023-03-14T13:02:49;10.30;99.90
32476;DHT22;18929;48.008;10.882;2023-03-14T13:05:17;10.40;99.90
32476;DHT22;18929;48.008;10.882;2023-03-14T13:10:35;10.20;99.90
32476;DHT22;18929;48.008;10.882;2023-03-14T13:13:11;10.30;99.90
32476;DHT22;18929;48.008;10.882;2023-03-14T13:15:43;10.30;99.90
32476;DHT22;18929;48.008;10.882;2023-03-14T13:18:11;10.10;99.90
32476;DHT22;18929;48.008;10.882;2023-03-14T13:20:40;10.20;99.90
32476;DHT22;18929;48.008;10.882;2023-03-14T13:23:18;10.20;99.90
32476;DHT22;18929;48.008;10.882;2023-03-14T13:25:45;10.20;99.90
32476;DHT22;18929;48.008;10.882;2023-03-14T13:28:13;9.80;99.90
32476;DHT22;18929;48.008;10.882;2023-03-14T13:30:43;9.90;99.90
32476;DHT22;18929;48.008;10.882;2023-03-14T13:33:14;9.60;99.90
32476;DHT22;18929;48.008;10.882;2023-03-14T13:35:42;9.80;99.90
32476;DHT22;18929;48.008;10.882;2023-03-14T13:38:16;9.70;99.90
32476;DHT22;18929;48.008;10.882;2023-03-14T13:40:43;9.70;99.90
32476;DHT22;18929;48.008;10.882;2023-03-14T13:43:13;9.70;99.90
32476;DHT22;18929;48.008;10.882;2023-03-14T13:45:45;9.80;99.90
32476;DHT22;18929;48.008;10.882;2023-03-14T13:48:14;9.90;99.90
32476;DHT22;18929;48.008;10.882;2023-03-14T13:50:51;10.10;99.90
32476;DHT22;18929;48.008;10.882;2023-03-14T13:53:19;10.10;99.90
32476;DHT22;18929;48.008;10.882;2023-03-14T13:55:45;9.90;99.90
32476;DHT22;18929;48.008;10.882;2023-03-14T13:58:19;9.70;99.90
32476;DHT22;18929;48.008;10.882;2023-03-14T14:00:54;9.40;99.90
32476;DHT22;18929;48.008;10.882;2023-03-14T14:03:21;9.40;99.90
32476;DHT22;18929;48.008;10.882;2023-03-14T14:05:48;9.40;99.90
32476;DHT22;18929;48.008;10.882;2023-03-14T14:08:15;9.50;99.90
32476;DHT22;18929;48.008;10.882;2023-03-14T14:10:42;9.40;99.90
32476;DHT22;18929;48.008;10.882;2023-03-14T14:13:10;9.40;99.90
32476;DHT22;18929;48.008;10.882;2023-03-14T14:15:39;9.20;99.90
32476;DHT22;18929;48.008;10.882;2023-03-14T14:18:30;8.70;99.90
32476;DHT22;18929;48.008;10.882;2023-03-14T14:20:57;9.20;99.90
32476;DHT22;18929;48.008;10.882;2023-03-14T14:23:24;9.70;99.90
32476;DHT22;18929;48.008;10.882;2023-03-14T14:25:54;10.10;99.90
32476;DHT22;18929;48.008;10.882;2023-03-14T14:28:23;10.30;99.90
32476;DHT22;18929;48.008;10.882;2023-03-14T14:30:59;10.50;99.90
32476;DHT22;18929;48.008;10.882;2023-03-14T14:33:26;10.40;99.90
32476;DHT22;18929;48.008;10.882;2023-03-14T14:35:55;10.30;99.90
32476;DHT22;18929;48.008;10.882;2023-03-14T14:38:22;10.60;99.90
32476;DHT22;18929;48.008;10.882;2023-03-14T14:40:49;10.60;99.90
32476;DHT22;18929;48.008;10.882;2023-03-14T14:43:18;10.60;99.90
32476;DHT22;18929;48.008;10.882;2023-03-14T14:45:46;10.00;99.90
32476;DHT22;18929;48.008;10.882;2023-03-14T14:48:21;10.00;99.90
32476;DHT22;18929;48.008;10.882;2023-03-14T14:50:50;9.60;99.90
32476;DHT22;18929;48.008;10.882;2023-03-14T14:53:21;10.20;99.90
32476;DHT22;18929;48.008;10.882;2023-03-14T14:55:49;10.00;99.90
32476;DHT22;18929;48.008;10.882;2023-03-14T14:58:18;10.40;99.90
32476;DHT22;18929;48.008;10.882;2023-03-14T15:00:49;10.10;99.90
32476;DHT22;18929;48.008;10.882;2023-03-14T15:03:18;9.60;99.90
32476;DHT22;18929;48.008;10.882;2023-03-14T15:05:45;10.20;99.90
32476;DHT22;18929;48.008;10.882;2023-03-14T15:08:12;10.00;99.90
32476;DHT22;18929;48.008;10.882;2023-03-14T15:10:40;9.90;99.90
32476;DHT22;18929;48.008;10.882;2023-03-14T15:13:07;9.80;99.90
32476;DHT22;18929;48.008;10.882;2023-03-14T15:15:33;9.60;99.90
32476;DHT22;18929;48.008;10.882;2023-03-14T15:20:55;10.00;99.90
32476;DHT22;18929;48.008;10.882;2023-03-14T15:23:22;9.70;99.90
32476;DHT22;18929;48.008;10.882;2023-03-14T15:25:51;9.40;99.90
32476;DHT22;18929;48.008;10.882;2023-03-14T15:28:19;9.40;99.90
32476;DHT22;18929;48.008;10.882;2023-03-14T15:30:46;9.50;99.90
32476;DHT22;18929;48.008;10.882;2023-03-14T15:33:13;9.60;99.90
32476;DHT22;18929;48.008;10.882;2023-03-14T15:35:40;9.80;99.90
32476;DHT22;18929;48.008;10.882;2023-03-14T15:38:09;9.70;99.90
32476;DHT22;18929;48.008;10.882;2023-03-14T15:40:36;9.20;99.90
32476;DHT22;18929;48.008;10.882;2023-03-14T15:43:04;9.60;99.90
32476;DHT22;18929;48.008;10.882;2023-03-14T15:45:31;9.70;99.90
32476;DHT22;18929;48.008;10.882;2023-03-14T15:47:58;9.80;99.90
32476;DHT22;18929;48.008;10.882;2023-03-14T15:50:25;9.20;99.90
32476;DHT22;18929;48.008;10.882;2023-03-14T15:52:51;9.80;99.90
32476;DHT22;18929;48.008;10.882;2023-03-14T15:55:18;9.70;99.90